createdAt,value
2022-11-30T00:01:23.751Z,41.08
2022-11-30T00:03:57.951Z,41.66
2022-11-30T00:06:26.025Z,41.36
2022-11-30T00:08:55.843Z,40.14
2022-11-30T00:11:25.878Z,39.79
2022-11-30T00:13:54.114Z,40.29
2022-11-30T00:16:22.137Z,40.08
2022-11-30T00:18:50.538Z,39.97
2022-11-30T00:21:18.723Z,40.11
2022-11-30T00:23:48.152Z,39.97
2022-11-30T00:26:18.284Z,39.66
2022-11-30T00:28:48.485Z,39.43
2022-11-30T00:31:18.549Z,39.36
2022-11-30T00:33:47.163Z,39.41
2022-11-30T00:36:17.806Z,38.64
2022-11-30T00:38:46.424Z,38.85
2022-11-30T00:41:15.143Z,38.17
2022-11-30T00:43:43.191Z,38.91
2022-11-30T00:46:11.419Z,39.67
2022-11-30T00:48:40.435Z,39.20
2022-11-30T00:51:10.781Z,39.23
2022-11-30T00:53:40.033Z,38.81
2022-11-30T00:56:08.996Z,38.05
2022-11-30T00:58:36.895Z,38.38
2022-11-30T01:01:04.957Z,38.14
2022-11-30T01:03:33.704Z,39.01
2022-11-30T01:06:10.905Z,38.36
2022-11-30T01:08:38.825Z,38.58
2022-11-30T01:11:26.481Z,38.43
2022-11-30T01:13:55.804Z,37.70
2022-11-30T01:16:30.502Z,37.45
2022-11-30T01:18:58.531Z,36.85
2022-11-30T01:21:28.709Z,36.61
2022-11-30T01:23:56.822Z,37.44
2022-11-30T01:26:24.930Z,36.67
2022-11-30T01:28:54.578Z,36.90
2022-11-30T01:31:24.254Z,37.08
2022-11-30T01:33:54.165Z,36.63
2022-11-30T01:36:28.506Z,37.72
2022-11-30T01:38:57.972Z,36.74
2022-11-30T01:41:32.354Z,36.47
2022-11-30T01:44:06.360Z,36.53
2022-11-30T01:46:49.754Z,36.64
2022-11-30T01:49:25.486Z,38.57
2022-11-30T01:52:03.448Z,38.75
2022-11-30T01:54:47.696Z,39.07
2022-11-30T01:57:22.912Z,37.94
2022-11-30T01:59:53.538Z,40.00
2022-11-30T02:02:31.040Z,40.83
2022-11-30T02:04:59.193Z,39.97
2022-11-30T02:07:27.611Z,40.18
2022-11-30T02:09:55.619Z,41.01
2022-11-30T02:12:40.718Z,40.79
2022-11-30T02:15:12.651Z,40.90
2022-11-30T02:18:13.799Z,41.04
2022-11-30T02:20:53.536Z,40.90
2022-11-30T02:23:45.680Z,41.35
2022-11-30T02:26:22.292Z,39.74
2022-11-30T02:28:59.349Z,39.80
2022-11-30T02:31:52.329Z,39.92
2022-11-30T02:34:23.872Z,40.50
2022-11-30T02:36:54.352Z,40.79
2022-11-30T02:39:23.456Z,41.68
2022-11-30T02:41:51.381Z,40.96
2022-11-30T02:44:21.973Z,39.57
2022-11-30T02:46:53.407Z,39.84
2022-11-30T02:49:39.897Z,39.82
2022-11-30T02:52:10.686Z,40.53
2022-11-30T02:54:38.727Z,40.35
2022-11-30T02:57:07.005Z,40.11
2022-11-30T02:59:35.445Z,39.58
2022-11-30T03:02:03.418Z,40.05
2022-11-30T03:04:31.318Z,39.73
2022-11-30T03:06:59.307Z,40.11
2022-11-30T03:09:27.438Z,39.17
2022-11-30T03:11:55.351Z,38.37
2022-11-30T03:14:23.255Z,38.41
2022-11-30T03:16:51.158Z,38.33
2022-11-30T03:19:19.065Z,38.60
2022-11-30T03:21:47.019Z,37.54
2022-11-30T03:24:14.960Z,38.39
2022-11-30T03:26:43.028Z,37.61
2022-11-30T03:29:10.893Z,38.33
2022-11-30T03:31:38.846Z,37.71
2022-11-30T03:34:06.708Z,37.43
2022-11-30T03:36:34.611Z,37.35
2022-11-30T03:39:02.747Z,36.89
2022-11-30T03:41:30.838Z,36.57
2022-11-30T03:43:58.709Z,36.82
2022-11-30T03:46:27.622Z,36.77
2022-11-30T03:48:55.630Z,37.12
2022-11-30T03:51:23.665Z,38.08
2022-11-30T03:53:51.557Z,37.81
2022-11-30T03:56:20.514Z,37.86
2022-11-30T03:58:48.424Z,37.49
2022-11-30T04:01:19.360Z,37.74
2022-11-30T04:03:49.420Z,38.22
2022-11-30T04:06:17.940Z,41.20
2022-11-30T04:08:46.067Z,41.98
2022-11-30T04:11:14.210Z,42.75
2022-11-30T04:13:42.733Z,42.27
2022-11-30T04:16:10.657Z,41.06
2022-11-30T04:18:39.527Z,41.60
2022-11-30T04:21:08.398Z,42.12
2022-11-30T04:23:39.090Z,43.26
2022-11-30T04:26:11.568Z,42.30
2022-11-30T04:28:39.800Z,42.66
2022-11-30T04:31:08.703Z,43.03
2022-11-30T04:33:36.997Z,42.88
2022-11-30T04:36:06.886Z,43.12
2022-11-30T04:38:36.705Z,43.28
2022-11-30T04:41:08.921Z,42.94
2022-11-30T04:43:37.214Z,43.29
2022-11-30T04:46:06.225Z,42.87
2022-11-30T04:48:34.522Z,43.84
2022-11-30T04:51:08.081Z,44.53
2022-11-30T04:53:37.613Z,43.08
2022-11-30T04:56:07.483Z,43.41
2022-11-30T04:58:36.293Z,41.77
2022-11-30T05:01:04.376Z,42.88
2022-11-30T05:03:32.266Z,43.39
2022-11-30T05:06:00.186Z,43.29
2022-11-30T05:08:28.544Z,45.06
2022-11-30T05:10:56.677Z,45.81
2022-11-30T05:13:26.405Z,46.97
2022-11-30T05:15:54.428Z,47.97
2022-11-30T05:18:22.926Z,48.76
2022-11-30T05:20:52.886Z,49.83
2022-11-30T05:23:22.517Z,50.63
2022-11-30T05:25:50.635Z,52.94
2022-11-30T05:28:19.095Z,52.82
2022-11-30T05:30:47.234Z,51.93
2022-11-30T05:33:15.188Z,51.92
2022-11-30T05:35:43.433Z,51.74
2022-11-30T05:38:11.415Z,52.56
2022-11-30T05:40:39.345Z,51.91
2022-11-30T05:43:07.245Z,49.95
2022-11-30T05:45:35.160Z,47.44
2022-11-30T05:48:03.047Z,46.83
2022-11-30T05:50:31.372Z,46.79
2022-11-30T05:53:00.876Z,45.59
2022-11-30T05:55:29.889Z,45.59
2022-11-30T05:57:58.070Z,45.65
2022-11-30T06:00:26.004Z,46.37
2022-11-30T06:02:58.372Z,46.28
2022-11-30T06:05:26.960Z,45.58
2022-11-30T06:07:55.644Z,46.20
2022-11-30T06:10:25.817Z,45.87
2022-11-30T06:12:53.793Z,45.55
2022-11-30T06:15:22.592Z,46.30
2022-11-30T06:17:50.529Z,46.11
2022-11-30T06:20:18.419Z,45.70
2022-11-30T06:22:46.973Z,45.17
2022-11-30T06:25:15.165Z,46.14
2022-11-30T06:27:43.686Z,46.27
2022-11-30T06:30:12.492Z,45.86
2022-11-30T06:32:40.518Z,45.97
2022-11-30T06:35:08.666Z,45.12
2022-11-30T06:37:36.571Z,45.61
2022-11-30T06:40:07.239Z,45.74
2022-11-30T06:42:37.106Z,44.66
2022-11-30T06:45:06.901Z,43.63
2022-11-30T06:47:35.358Z,43.59
2022-11-30T06:50:03.936Z,44.03
2022-11-30T06:52:32.369Z,44.92
2022-11-30T06:55:00.680Z,45.16
2022-11-30T06:57:29.819Z,43.52
2022-11-30T06:59:58.069Z,44.28
2022-11-30T07:02:26.106Z,44.33
2022-11-30T07:04:54.057Z,45.22
2022-11-30T07:07:22.290Z,46.03
2022-11-30T07:09:51.105Z,46.59
2022-11-30T07:12:19.532Z,44.86
2022-11-30T07:14:48.006Z,46.48
2022-11-30T07:17:16.585Z,46.65
2022-11-30T07:19:44.704Z,45.89
2022-11-30T07:22:14.036Z,46.79
2022-11-30T07:25:00.444Z,46.53
2022-11-30T07:27:28.686Z,47.42
2022-11-30T07:29:56.850Z,46.44
2022-11-30T07:32:25.091Z,45.59
2022-11-30T07:34:53.118Z,45.45
2022-11-30T07:37:21.179Z,43.97
2022-11-30T07:39:49.685Z,44.98
2022-11-30T07:42:17.765Z,45.73
2022-11-30T07:44:45.869Z,46.78
2022-11-30T07:47:14.173Z,46.37
2022-11-30T07:49:42.097Z,47.72
2022-11-30T07:52:09.961Z,46.90
2022-11-30T07:54:38.001Z,46.01
2022-11-30T07:57:06.543Z,46.14
2022-11-30T07:59:34.526Z,45.03
2022-11-30T08:02:02.624Z,43.80
2022-11-30T08:04:31.132Z,43.44
2022-11-30T08:06:59.369Z,42.84
2022-11-30T08:09:27.297Z,44.60
2022-11-30T08:11:55.159Z,44.30
2022-11-30T08:14:23.365Z,44.97
2022-11-30T08:16:51.825Z,46.12
2022-11-30T08:19:20.607Z,44.64
2022-11-30T08:21:49.803Z,44.78
2022-11-30T08:24:17.932Z,44.32
2022-11-30T08:26:45.984Z,44.18
2022-11-30T08:29:13.913Z,45.99
2022-11-30T08:31:41.840Z,45.45
2022-11-30T08:34:11.880Z,46.29
2022-11-30T08:36:41.081Z,44.70
2022-11-30T08:39:12.430Z,45.77
2022-11-30T08:41:40.465Z,45.49
2022-11-30T08:44:08.733Z,48.45
2022-11-30T08:46:53.450Z,45.57
2022-11-30T08:52:18.955Z,41.97
2022-11-30T08:54:48.563Z,40.62
2022-11-30T08:57:18.792Z,41.74
2022-11-30T08:59:47.616Z,42.45
2022-11-30T09:02:17.922Z,41.43
2022-11-30T09:04:49.211Z,40.93
2022-11-30T09:07:17.738Z,40.91
2022-11-30T09:09:45.963Z,41.51
2022-11-30T09:12:13.872Z,41.24
2022-11-30T09:14:42.138Z,41.93
2022-11-30T09:17:10.002Z,40.31
2022-11-30T09:19:38.214Z,40.67
2022-11-30T09:22:06.458Z,41.37
2022-11-30T09:24:34.510Z,42.63
2022-11-30T09:27:02.566Z,43.21
2022-11-30T09:29:30.593Z,43.08
2022-11-30T09:31:58.721Z,42.53
2022-11-30T09:34:26.613Z,42.49
2022-11-30T09:36:54.829Z,43.63
2022-11-30T09:39:23.164Z,43.70
2022-11-30T09:42:00.299Z,42.04
2022-11-30T09:44:56.989Z,41.67
2022-11-30T09:47:46.091Z,42.73
2022-11-30T09:50:16.710Z,43.65
2022-11-30T09:52:52.489Z,43.77
2022-11-30T09:55:49.555Z,45.06
2022-11-30T09:58:39.775Z,47.35
2022-11-30T10:01:17.560Z,48.09
2022-11-30T10:03:46.565Z,49.34
2022-11-30T10:06:37.628Z,49.05
2022-11-30T10:09:17.832Z,49.14
2022-11-30T10:11:52.447Z,49.88
2022-11-30T10:14:38.132Z,48.91
2022-11-30T10:17:25.771Z,46.92
2022-11-30T10:19:59.961Z,47.74
2022-11-30T10:22:46.522Z,48.43
2022-11-30T10:25:33.392Z,47.03
2022-11-30T10:28:38.650Z,46.58
2022-11-30T10:31:02.201Z,45.36
2022-11-30T10:33:38.819Z,45.70
2022-11-30T10:36:14.068Z,45.05
2022-11-30T10:38:50.100Z,46.26
2022-11-30T10:41:28.884Z,46.52
2022-11-30T10:44:16.189Z,45.15
2022-11-30T10:47:05.637Z,44.99
2022-11-30T10:49:37.619Z,43.90
2022-11-30T10:52:09.102Z,43.74
2022-11-30T10:54:37.364Z,42.52
2022-11-30T10:57:07.531Z,43.27
2022-11-30T10:59:54.530Z,43.53
2022-11-30T11:02:39.662Z,43.16
2022-11-30T11:05:19.659Z,42.59
2022-11-30T11:08:18.994Z,43.41
2022-11-30T11:10:52.237Z,43.47
2022-11-30T11:13:35.406Z,43.27
2022-11-30T11:16:05.106Z,43.30
2022-11-30T11:18:35.015Z,43.00
2022-11-30T11:21:07.396Z,41.74
2022-11-30T11:23:35.414Z,42.78
2022-11-30T11:26:04.489Z,43.34
2022-11-30T11:28:35.573Z,44.52
2022-11-30T11:31:22.942Z,43.93
2022-11-30T11:33:54.158Z,44.76
2022-11-30T11:36:32.059Z,45.61
2022-11-30T11:39:01.366Z,45.39
2022-11-30T11:41:35.269Z,44.52
2022-11-30T11:44:08.899Z,45.32
2022-11-30T11:47:03.502Z,43.49
2022-11-30T11:49:36.723Z,43.52
2022-11-30T11:52:13.655Z,44.42
2022-11-30T11:54:51.632Z,44.47
2022-11-30T11:57:25.187Z,44.77
2022-11-30T12:00:15.893Z,45.49
2022-11-30T12:03:43.071Z,45.33
2022-11-30T12:06:15.024Z,44.21
2022-11-30T12:08:55.136Z,44.94
2022-11-30T12:11:37.199Z,43.76
2022-11-30T12:14:13.049Z,45.71
2022-11-30T12:16:40.967Z,44.74
2022-11-30T12:19:16.602Z,46.15
2022-11-30T12:21:53.743Z,46.61
2022-11-30T12:24:21.619Z,46.55
2022-11-30T12:27:05.658Z,46.53
2022-11-30T12:30:12.585Z,45.66
2022-11-30T12:33:07.467Z,45.59
2022-11-30T12:35:59.335Z,45.52
2022-11-30T12:38:48.767Z,46.38
2022-11-30T12:41:40.909Z,45.54
2022-11-30T12:44:30.206Z,45.07
2022-11-30T12:47:23.184Z,45.41
2022-11-30T12:49:54.872Z,46.56
2022-11-30T12:52:29.758Z,46.97
2022-11-30T12:55:00.536Z,46.90
2022-11-30T12:57:38.538Z,46.50
2022-11-30T13:00:21.572Z,47.05
2022-11-30T13:03:07.867Z,48.03
2022-11-30T13:05:41.299Z,48.60
2022-11-30T13:08:43.270Z,46.91
2022-11-30T13:11:17.587Z,45.31
2022-11-30T13:13:54.806Z,44.86
2022-11-30T13:16:24.953Z,43.47
2022-11-30T13:18:59.679Z,40.53
2022-11-30T13:21:40.588Z,41.41
2022-11-30T13:24:16.344Z,41.09
2022-11-30T13:26:46.198Z,41.29
2022-11-30T13:29:51.813Z,41.59
2022-11-30T13:32:56.299Z,41.85
2022-11-30T13:35:29.672Z,42.83
2022-11-30T13:38:36.219Z,42.96
2022-11-30T13:41:07.969Z,42.36
2022-11-30T13:43:53.757Z,43.94
2022-11-30T13:46:25.557Z,44.84
2022-11-30T13:49:23.984Z,47.21
2022-11-30T13:52:13.599Z,49.13
2022-11-30T13:54:50.794Z,48.97
2022-11-30T13:57:38.932Z,46.05
2022-11-30T14:00:36.374Z,45.96
2022-11-30T14:03:22.303Z,47.32
2022-11-30T14:05:54.189Z,52.24
2022-11-30T14:08:22.046Z,48.59
2022-11-30T14:10:55.591Z,47.95
2022-11-30T14:13:29.765Z,46.47
2022-11-30T14:16:00.741Z,45.37
2022-11-30T14:18:40.402Z,46.50
2022-11-30T14:21:22.201Z,50.49
2022-11-30T14:24:00.045Z,50.83
2022-11-30T14:26:35.564Z,51.17
2022-11-30T14:29:12.580Z,52.32
2022-11-30T14:32:08.571Z,56.59
2022-11-30T14:34:41.723Z,60.80
2022-11-30T14:37:23.455Z,59.31
2022-11-30T14:39:56.673Z,58.95
2022-11-30T14:42:27.534Z,55.02
2022-11-30T14:44:56.345Z,51.37
2022-11-30T14:47:29.901Z,50.75
2022-11-30T14:50:02.384Z,51.95
2022-11-30T14:52:50.857Z,52.88
2022-11-30T14:55:52.971Z,51.77
2022-11-30T14:58:44.973Z,51.87
2022-11-30T15:01:23.667Z,51.21
2022-11-30T15:03:54.721Z,50.33
2022-11-30T15:06:29.794Z,50.43
2022-11-30T15:09:01.224Z,49.93
2022-11-30T15:11:29.465Z,50.13
2022-11-30T15:14:07.962Z,50.62
2022-11-30T15:16:36.198Z,51.87
2022-11-30T15:19:36.473Z,48.68
2022-11-30T15:22:04.364Z,48.40
2022-11-30T15:24:32.296Z,46.45
2022-11-30T15:27:12.729Z,43.77
2022-11-30T15:29:47.894Z,41.61
2022-11-30T15:32:20.343Z,43.48
2022-11-30T15:34:56.092Z,43.21
2022-11-30T15:37:50.687Z,42.60
2022-11-30T15:40:38.833Z,43.32
2022-11-30T15:43:23.972Z,41.86
2022-11-30T15:45:57.838Z,41.39
2022-11-30T15:48:35.220Z,41.56
2022-11-30T15:51:03.203Z,42.18
2022-11-30T15:53:48.377Z,42.79
2022-11-30T15:56:27.719Z,43.73
2022-11-30T15:59:12.062Z,43.96
2022-11-30T16:02:14.620Z,44.80
2022-11-30T16:04:57.829Z,43.08
2022-11-30T16:07:29.814Z,42.47
2022-11-30T16:10:15.885Z,43.80
2022-11-30T16:12:45.258Z,44.35
2022-11-30T16:15:48.095Z,44.38
2022-11-30T16:18:28.817Z,44.03
2022-11-30T16:20:59.778Z,43.40
2022-11-30T16:23:28.342Z,43.49
2022-11-30T16:25:56.469Z,42.90
2022-11-30T16:28:24.840Z,43.09
2022-11-30T16:30:59.399Z,44.26
2022-11-30T16:33:28.129Z,44.36
2022-11-30T16:36:12.082Z,46.54
2022-11-30T16:38:40.440Z,46.23
2022-11-30T16:41:18.527Z,45.41
2022-11-30T16:43:47.902Z,45.45
2022-11-30T16:46:19.611Z,45.39
2022-11-30T16:48:47.909Z,45.73
2022-11-30T16:51:21.672Z,45.13
2022-11-30T16:53:49.784Z,45.70
2022-11-30T16:56:18.436Z,46.40
2022-11-30T16:58:46.891Z,46.40
2022-11-30T17:01:36.506Z,46.13
2022-11-30T17:04:15.115Z,47.91
2022-11-30T17:06:45.841Z,46.10
2022-11-30T17:09:19.902Z,47.61
2022-11-30T17:11:50.636Z,47.83
2022-11-30T17:14:20.042Z,48.42
2022-11-30T17:16:48.039Z,49.12
2022-11-30T17:19:16.038Z,47.70
2022-11-30T17:21:44.775Z,47.56
2022-11-30T17:24:13.507Z,47.65
2022-11-30T17:26:41.461Z,47.10
2022-11-30T17:29:09.712Z,47.14
2022-11-30T17:31:37.624Z,47.73
2022-11-30T17:34:06.857Z,46.19
2022-11-30T17:36:34.825Z,47.11
2022-11-30T17:39:08.867Z,47.95
2022-11-30T17:41:36.917Z,48.88
2022-11-30T17:44:04.784Z,47.44
2022-11-30T17:46:32.879Z,47.71
2022-11-30T17:49:01.803Z,46.23
2022-11-30T17:51:30.661Z,47.53
2022-11-30T17:53:58.950Z,47.54
2022-11-30T17:56:26.854Z,47.24
2022-11-30T17:58:54.733Z,48.10
2022-11-30T18:01:25.424Z,48.46
2022-11-30T18:03:54.965Z,47.31
2022-11-30T18:06:23.133Z,47.08
2022-11-30T18:08:51.074Z,46.36
2022-11-30T18:11:21.434Z,44.92
2022-11-30T18:13:53.439Z,44.28
2022-11-30T18:16:26.859Z,43.85
2022-11-30T18:18:57.224Z,42.62
2022-11-30T18:21:27.850Z,45.06
2022-11-30T18:23:57.624Z,45.36
2022-11-30T18:26:26.986Z,44.50
2022-11-30T18:28:57.526Z,45.09
2022-11-30T18:31:27.879Z,44.76
2022-11-30T18:33:57.757Z,46.39
2022-11-30T18:36:25.991Z,46.92
2022-11-30T18:38:54.376Z,47.17
2022-11-30T18:41:22.440Z,46.97
2022-11-30T18:43:50.370Z,46.30
2022-11-30T18:46:18.361Z,46.54
2022-11-30T18:48:50.367Z,46.11
2022-11-30T18:51:24.644Z,46.44
2022-11-30T18:53:58.469Z,44.41
2022-11-30T18:56:29.100Z,46.03
2022-11-30T18:58:59.317Z,46.90
2022-11-30T19:01:28.645Z,48.06
2022-11-30T19:04:02.626Z,47.58
2022-11-30T19:06:33.197Z,47.26
2022-11-30T19:09:10.432Z,48.91
2022-11-30T19:11:41.308Z,46.43
2022-11-30T19:14:13.534Z,48.79
2022-11-30T19:16:41.574Z,47.11
2022-11-30T19:19:13.881Z,48.35
2022-11-30T19:21:47.658Z,48.57
2022-11-30T19:24:16.528Z,47.55
2022-11-30T19:26:44.616Z,46.95
2022-11-30T19:29:12.520Z,45.75
2022-11-30T19:31:40.770Z,45.23
2022-11-30T19:34:12.611Z,44.57
2022-11-30T19:36:41.863Z,42.54
2022-11-30T19:39:10.005Z,41.46
2022-11-30T19:41:38.486Z,40.75
2022-11-30T19:44:12.236Z,40.27
2022-11-30T19:46:41.212Z,38.90
2022-11-30T19:49:10.110Z,39.06
2022-11-30T19:51:38.065Z,37.54
2022-11-30T19:54:06.018Z,37.59
2022-11-30T19:56:38.937Z,37.99
2022-11-30T19:59:06.900Z,36.85
2022-11-30T20:01:35.418Z,37.36
2022-11-30T20:04:03.834Z,37.76
2022-11-30T20:06:34.496Z,37.33
2022-11-30T20:09:04.419Z,37.49
2022-11-30T20:11:32.973Z,37.26
2022-11-30T20:14:00.897Z,36.86
2022-11-30T20:16:29.711Z,37.33
2022-11-30T20:19:01.980Z,36.83
2022-11-30T20:21:33.094Z,36.46
2022-11-30T20:24:05.337Z,36.80
2022-11-30T20:26:39.878Z,35.83
2022-11-30T20:29:12.750Z,36.07
2022-11-30T20:31:42.727Z,36.46
2022-11-30T20:34:10.935Z,36.59
2022-11-30T20:36:39.002Z,36.91
2022-11-30T20:39:07.506Z,36.21
2022-11-30T20:41:35.508Z,37.36
2022-11-30T20:44:03.541Z,36.87
2022-11-30T20:46:35.144Z,37.19
2022-11-30T20:49:09.368Z,37.50
2022-11-30T20:51:37.274Z,37.66
2022-11-30T20:54:09.221Z,39.33
2022-11-30T20:56:38.677Z,38.40
2022-11-30T20:59:09.607Z,37.25
2022-11-30T21:01:37.712Z,40.28
2022-11-30T21:04:05.640Z,39.89
2022-11-30T21:06:34.143Z,42.60
2022-11-30T21:09:03.408Z,42.50
2022-11-30T21:11:31.513Z,44.55
2022-11-30T21:13:59.657Z,43.12
2022-11-30T21:16:29.605Z,43.60
2022-11-30T21:18:59.571Z,44.36
2022-11-30T21:21:33.257Z,44.21
2022-11-30T21:24:07.337Z,46.13
2022-11-30T21:26:43.203Z,44.81
2022-11-30T21:29:13.996Z,45.11
2022-11-30T21:31:43.168Z,42.92
2022-11-30T21:34:11.251Z,41.27
2022-11-30T21:36:39.366Z,38.99
2022-11-30T21:39:08.304Z,39.60
2022-11-30T21:41:38.482Z,36.66
2022-11-30T21:44:09.520Z,36.44
2022-11-30T21:46:37.589Z,34.65
2022-11-30T21:49:06.109Z,33.18
2022-11-30T21:51:33.973Z,32.00
2022-11-30T21:54:05.620Z,29.86
2022-11-30T21:56:36.483Z,28.77
2022-11-30T21:59:06.580Z,26.13
2022-11-30T22:01:39.861Z,23.05
2022-11-30T22:04:10.115Z,22.18
2022-11-30T22:06:39.670Z,21.18
2022-11-30T22:09:13.712Z,20.15
2022-11-30T22:11:43.925Z,18.85
2022-11-30T22:14:15.637Z,18.20
2022-11-30T22:16:43.866Z,17.43
2022-11-30T22:19:11.774Z,16.77
2022-11-30T22:21:41.346Z,16.53
2022-11-30T22:24:13.406Z,15.24
2022-11-30T22:26:45.428Z,14.81
2022-11-30T22:29:13.382Z,14.90
2022-11-30T22:31:43.359Z,14.91
2022-11-30T22:34:12.512Z,15.21
2022-11-30T22:36:41.999Z,13.94
2022-11-30T22:39:19.572Z,13.75
2022-11-30T22:41:54.663Z,13.57
2022-11-30T22:44:24.385Z,12.74
2022-11-30T22:46:52.344Z,12.74
2022-11-30T22:49:21.816Z,12.49
2022-11-30T22:51:50.716Z,12.36
2022-11-30T22:54:19.712Z,12.46
2022-11-30T22:56:47.827Z,12.74
2022-11-30T22:59:16.173Z,11.82
2022-11-30T23:01:46.629Z,11.74
2022-11-30T23:04:18.036Z,11.67
2022-11-30T23:06:48.351Z,11.82
2022-11-30T23:09:22.399Z,12.32
2022-11-30T23:11:50.822Z,12.10
2022-11-30T23:14:19.298Z,12.04
2022-11-30T23:16:47.350Z,12.19
2022-11-30T23:19:15.821Z,11.59
2022-11-30T23:21:48.605Z,12.18
2022-11-30T23:24:20.696Z,11.63
2022-11-30T23:26:49.273Z,11.72
2022-11-30T23:29:17.834Z,11.18
2022-11-30T23:31:47.284Z,10.74
2022-11-30T23:34:19.107Z,11.23
2022-11-30T23:36:48.665Z,13.03
2022-11-30T23:39:18.857Z,13.37
2022-11-30T23:41:47.529Z,13.45
2022-11-30T23:44:15.649Z,13.69
2022-11-30T23:46:43.697Z,13.77
2022-11-30T23:49:13.932Z,14.89
2022-11-30T23:51:42.928Z,17.74
2022-11-30T23:54:10.977Z,19.96
2022-11-30T23:56:39.461Z,20.16
2022-11-30T23:59:07.370Z,20.01
